sensor_id;sensor_type;location;lat;lon;timestamp;temperature;humidity
37544;DHT22;23385;52.038;20.322;2022-07-29T00:01:55;11.70;99.90
37544;DHT22;23385;52.038;20.322;2022-07-29T00:04:21;11.60;99.90
37544;DHT22;23385;52.038;20.322;2022-07-29T00:06:47;11.50;99.90
37544;DHT22;23385;52.038;20.322;2022-07-29T00:09:13;11.50;99.90
37544;DHT22;23385;52.038;20.322;2022-07-29T00:11:39;11.40;99.90
37544;DHT22;23385;52.038;20.322;2022-07-29T00:14:05;11.40;99.90
37544;DHT22;23385;52.038;20.322;2022-07-29T00:16:30;11.40;99.90
37544;DHT22;23385;52.038;20.322;2022-07-29T00:18:56;11.30;99.90
37544;DHT22;23385;52.038;20.322;2022-07-29T00:21:22;11.30;99.90
37544;DHT22;23385;52.038;20.322;2022-07-29T00:23:47;11.30;99.90
37544;DHT22;23385;52.038;20.322;2022-07-29T00:26:13;11.20;99.90
37544;DHT22;23385;52.038;20.322;2022-07-29T00:28:39;11.20;99.90
37544;DHT22;23385;52.038;20.322;2022-07-29T00:31:05;10.80;99.90
37544;DHT22;23385;52.038;20.322;2022-07-29T00:33:30;10.80;99.90
37544;DHT22;23385;52.038;20.322;2022-07-29T00:35:56;10.80;99.90
37544;DHT22;23385;52.038;20.322;2022-07-29T00:38:22;10.80;99.90
37544;DHT22;23385;52.038;20.322;2022-07-29T00:40:48;10.90;99.90
37544;DHT22;23385;52.038;20.322;2022-07-29T00:43:14;10.80;99.90
37544;DHT22;23385;52.038;20.322;2022-07-29T00:45:41;10.80;99.90
37544;DHT22;23385;52.038;20.322;2022-07-29T00:48:07;10.60;99.90
37544;DHT22;23385;52.038;20.322;2022-07-29T00:50:34;10.50;99.90
37544;DHT22;23385;52.038;20.322;2022-07-29T00:53:02;10.50;99.90
37544;DHT22;23385;52.038;20.322;2022-07-29T00:55:28;10.40;99.90
37544;DHT22;23385;52.038;20.322;2022-07-29T00:57:55;10.40;99.90
37544;DHT22;23385;52.038;20.322;2022-07-29T01:00:23;10.20;99.90
37544;DHT22;23385;52.038;20.322;2022-07-29T01:02:50;10.30;99.90
37544;DHT22;23385;52.038;20.322;2022-07-29T01:05:20;10.30;99.90
37544;DHT22;23385;52.038;20.322;2022-07-29T01:07:49;10.30;99.90
37544;DHT22;23385;52.038;20.322;2022-07-29T01:10:16;10.30;99.90
37544;DHT22;23385;52.038;20.322;2022-07-29T01:12:44;10.20;99.90
37544;DHT22;23385;52.038;20.322;2022-07-29T01:15:12;10.20;99.90
37544;DHT22;23385;52.038;20.322;2022-07-29T01:34:08;10.00;99.90
37544;DHT22;23385;52.038;20.322;2022-07-29T01:37:12;10.00;99.90
37544;DHT22;23385;52.038;20.322;2022-07-29T01:39:41;10.00;99.90
37544;DHT22;23385;52.038;20.322;2022-07-29T01:45:06;10.00;99.90
37544;DHT22;23385;52.038;20.322;2022-07-29T01:47:41;9.90;99.90
37544;DHT22;23385;52.038;20.322;2022-07-29T01:50:12;9.90;99.90
37544;DHT22;23385;52.038;20.322;2022-07-29T01:52:49;9.90;99.90
37544;DHT22;23385;52.038;20.322;2022-07-29T01:55:20;9.90;99.90
37544;DHT22;23385;52.038;20.322;2022-07-29T01:57:48;9.90;99.90
37544;DHT22;23385;52.038;20.322;2022-07-29T02:00:15;9.90;99.90
37544;DHT22;23385;52.038;20.322;2022-07-29T02:02:44;9.70;99.90
37544;DHT22;23385;52.038;20.322;2022-07-29T02:05:14;9.70;99.90
37544;DHT22;23385;52.038;20.322;2022-07-29T02:07:44;9.70;99.90
37544;DHT22;23385;52.038;20.322;2022-07-29T02:10:12;9.70;99.90
37544;DHT22;23385;52.038;20.322;2022-07-29T02:12:39;9.70;99.90
37544;DHT22;23385;52.038;20.322;2022-07-29T02:45:24;9.10;99.90
37544;DHT22;23385;52.038;20.322;2022-07-29T02:47:51;9.10;99.90
37544;DHT22;23385;52.038;20.322;2022-07-29T02:50:33;9.00;99.90
37544;DHT22;23385;52.038;20.322;2022-07-29T02:58:25;8.90;99.90
37544;DHT22;23385;52.038;20.322;2022-07-29T03:00:58;9.00;99.90
37544;DHT22;23385;52.038;20.322;2022-07-29T03:03:31;9.00;99.90
37544;DHT22;23385;52.038;20.322;2022-07-29T03:06:00;9.00;99.90
37544;DHT22;23385;52.038;20.322;2022-07-29T03:08:27;9.00;99.90
37544;DHT22;23385;52.038;20.322;2022-07-29T03:10:53;8.90;99.90
37544;DHT22;23385;52.038;20.322;2022-07-29T03:13:19;8.90;99.90
37544;DHT22;23385;52.038;20.322;2022-07-29T03:15:47;8.90;99.90
37544;DHT22;23385;52.038;20.322;2022-07-29T03:18:13;8.90;99.90
37544;DHT22;23385;52.038;20.322;2022-07-29T03:20:40;8.90;99.90
37544;DHT22;23385;52.038;20.322;2022-07-29T03:23:06;8.90;99.90
37544;DHT22;23385;52.038;20.322;2022-07-29T03:25:31;8.90;99.90
37544;DHT22;23385;52.038;20.322;2022-07-29T03:27:57;8.90;99.90
37544;DHT22;23385;52.038;20.322;2022-07-29T03:30:23;9.00;99.90
37544;DHT22;23385;52.038;20.322;2022-07-29T03:32:49;8.90;99.90
37544;DHT22;23385;52.038;20.322;2022-07-29T03:35:15;9.00;99.90
37544;DHT22;23385;52.038;20.322;2022-07-29T03:37:45;9.00;99.90
37544;DHT22;23385;52.038;20.322;2022-07-29T03:40:14;9.00;99.90
37544;DHT22;23385;52.038;20.322;2022-07-29T03:42:43;9.00;99.90
37544;DHT22;23385;52.038;20.322;2022-07-29T03:45:12;9.00;99.90
37544;DHT22;23385;52.038;20.322;2022-07-29T03:47:42;9.00;99.90
37544;DHT22;23385;52.038;20.322;2022-07-29T03:50:11;9.00;99.90
37544;DHT22;23385;52.038;20.322;2022-07-29T03:52:38;9.00;99.90
37544;DHT22;23385;52.038;20.322;2022-07-29T03:55:05;9.00;99.90
37544;DHT22;23385;52.038;20.322;2022-07-29T03:57:32;9.00;99.90
37544;DHT22;23385;52.038;20.322;2022-07-29T04:00:00;9.00;99.90
37544;DHT22;23385;52.038;20.322;2022-07-29T04:02:26;9.00;99.90
37544;DHT22;23385;52.038;20.322;2022-07-29T04:04:52;9.10;99.90
37544;DHT22;23385;52.038;20.322;2022-07-29T04:07:18;9.20;99.90
37544;DHT22;23385;52.038;20.322;2022-07-29T04:09:44;9.30;99.90
37544;DHT22;23385;52.038;20.322;2022-07-29T04:12:10;9.40;99.90
37544;DHT22;23385;52.038;20.322;2022-07-29T04:14:37;9.50;99.90
37544;DHT22;23385;52.038;20.322;2022-07-29T04:17:04;9.60;99.90
37544;DHT22;23385;52.038;20.322;2022-07-29T04:19:30;9.70;99.90
37544;DHT22;23385;52.038;20.322;2022-07-29T04:21:57;9.80;99.90
37544;DHT22;23385;52.038;20.322;2022-07-29T04:24:23;9.90;99.90
37544;DHT22;23385;52.038;20.322;2022-07-29T04:26:51;10.00;99.90
37544;DHT22;23385;52.038;20.322;2022-07-29T04:29:17;10.20;99.90
37544;DHT22;23385;52.038;20.322;2022-07-29T04:31:44;10.40;99.90
37544;DHT22;23385;52.038;20.322;2022-07-29T04:34:10;10.50;99.90
37544;DHT22;23385;52.038;20.322;2022-07-29T04:36:36;10.70;99.90
37544;DHT22;23385;52.038;20.322;2022-07-29T04:39:02;10.90;99.90
37544;DHT22;23385;52.038;20.322;2022-07-29T04:41:28;11.10;99.90
37544;DHT22;23385;52.038;20.322;2022-07-29T04:43:54;11.20;99.90
37544;DHT22;23385;52.038;20.322;2022-07-29T04:46:20;11.40;99.90
37544;DHT22;23385;52.038;20.322;2022-07-29T04:48:46;11.60;99.90
37544;DHT22;23385;52.038;20.322;2022-07-29T04:51:13;11.80;99.90
37544;DHT22;23385;52.038;20.322;2022-07-29T04:53:39;12.00;99.90
37544;DHT22;23385;52.038;20.322;2022-07-29T04:56:05;12.20;99.90
37544;DHT22;23385;52.038;20.322;2022-07-29T04:58:31;12.50;99.90
37544;DHT22;23385;52.038;20.322;2022-07-29T05:01:03;12.80;99.90
37544;DHT22;23385;52.038;20.322;2022-07-29T05:03:29;13.00;99.90
37544;DHT22;23385;52.038;20.322;2022-07-29T05:05:55;13.30;99.90
37544;DHT22;23385;52.038;20.322;2022-07-29T05:08:20;13.50;99.90
37544;DHT22;23385;52.038;20.322;2022-07-29T05:10:46;13.80;99.90
37544;DHT22;23385;52.038;20.322;2022-07-29T05:13:12;14.10;99.90
37544;DHT22;23385;52.038;20.322;2022-07-29T05:15:38;14.30;99.90
37544;DHT22;23385;52.038;20.322;2022-07-29T05:18:04;14.50;99.90
37544;DHT22;23385;52.038;20.322;2022-07-29T05:20:30;14.70;99.90
37544;DHT22;23385;52.038;20.322;2022-07-29T05:22:57;14.90;99.90
37544;DHT22;23385;52.038;20.322;2022-07-29T05:25:24;15.20;99.90
37544;DHT22;23385;52.038;20.322;2022-07-29T05:27:50;15.40;99.90
37544;DHT22;23385;52.038;20.322;2022-07-29T05:30:16;15.70;99.90
37544;DHT22;23385;52.038;20.322;2022-07-29T05:32:41;15.90;99.90
37544;DHT22;23385;52.038;20.322;2022-07-29T05:35:07;16.20;99.90
37544;DHT22;23385;52.038;20.322;2022-07-29T05:37:33;16.40;99.90
37544;DHT22;23385;52.038;20.322;2022-07-29T05:39:59;16.70;99.90
37544;DHT22;23385;52.038;20.322;2022-07-29T05:42:25;17.00;99.90
37544;DHT22;23385;52.038;20.322;2022-07-29T05:44:51;17.20;99.90
37544;DHT22;23385;52.038;20.322;2022-07-29T05:47:17;17.40;99.90
37544;DHT22;23385;52.038;20.322;2022-07-29T05:49:43;17.70;99.90
37544;DHT22;23385;52.038;20.322;2022-07-29T05:52:09;17.80;99.90
37544;DHT22;23385;52.038;20.322;2022-07-29T05:54:35;18.00;99.90
37544;DHT22;23385;52.038;20.322;2022-07-29T05:57:01;18.20;99.90
37544;DHT22;23385;52.038;20.322;2022-07-29T05:59:27;18.30;99.90
37544;DHT22;23385;52.038;20.322;2022-07-29T06:01:53;18.50;99.90
37544;DHT22;23385;52.038;20.322;2022-07-29T06:04:20;18.70;99.90
37544;DHT22;23385;52.038;20.322;2022-07-29T06:06:46;18.90;99.90
37544;DHT22;23385;52.038;20.322;2022-07-29T06:09:11;19.00;99.90
37544;DHT22;23385;52.038;20.322;2022-07-29T06:11:37;19.10;99.90
37544;DHT22;23385;52.038;20.322;2022-07-29T06:14:04;19.30;99.90
37544;DHT22;23385;52.038;20.322;2022-07-29T06:16:30;19.50;99.90
37544;DHT22;23385;52.038;20.322;2022-07-29T06:18:56;19.70;99.90
37544;DHT22;23385;52.038;20.322;2022-07-29T06:21:22;19.70;99.90
37544;DHT22;23385;52.038;20.322;2022-07-29T06:23:47;19.90;99.90
37544;DHT22;23385;52.038;20.322;2022-07-29T06:26:13;20.10;99.90
37544;DHT22;23385;52.038;20.322;2022-07-29T06:28:39;20.20;99.90
37544;DHT22;23385;52.038;20.322;2022-07-29T06:31:05;20.40;99.90
37544;DHT22;23385;52.038;20.322;2022-07-29T06:33:31;20.50;99.90
37544;DHT22;23385;52.038;20.322;2022-07-29T06:35:56;20.60;99.90
37544;DHT22;23385;52.038;20.322;2022-07-29T06:38:22;20.60;99.90
37544;DHT22;23385;52.038;20.322;2022-07-29T06:40:57;20.80;99.90
37544;DHT22;23385;52.038;20.322;2022-07-29T06:43:40;20.80;99.90
37544;DHT22;23385;52.038;20.322;2022-07-29T06:46:18;21.00;99.90
37544;DHT22;23385;52.038;20.322;2022-07-29T06:49:01;21.00;99.90
37544;DHT22;23385;52.038;20.322;2022-07-29T06:51:39;21.20;99.90
37544;DHT22;23385;52.038;20.322;2022-07-29T06:54:08;21.30;99.90
37544;DHT22;23385;52.038;20.322;2022-07-29T06:56:34;21.50;99.90
37544;DHT22;23385;52.038;20.322;2022-07-29T06:59:04;21.70;99.90
37544;DHT22;23385;52.038;20.322;2022-07-29T07:01:30;21.90;99.90
37544;DHT22;23385;52.038;20.322;2022-07-29T07:03:56;22.10;99.90
37544;DHT22;23385;52.038;20.322;2022-07-29T07:06:22;22.30;99.90
37544;DHT22;23385;52.038;20.322;2022-07-29T07:08:47;22.30;99.90
37544;DHT22;23385;52.038;20.322;2022-07-29T07:11:21;22.40;99.90
37544;DHT22;23385;52.038;20.322;2022-07-29T07:13:51;22.70;99.90
37544;DHT22;23385;52.038;20.322;2022-07-29T07:16:17;22.70;99.90
37544;DHT22;23385;52.038;20.322;2022-07-29T07:18:44;22.60;99.90
37544;DHT22;23385;52.038;20.322;2022-07-29T07:21:11;22.60;99.90
37544;DHT22;23385;52.038;20.322;2022-07-29T07:23:36;22.80;99.90
37544;DHT22;23385;52.038;20.322;2022-07-29T07:26:02;22.60;99.90
37544;DHT22;23385;52.038;20.322;2022-07-29T07:28:29;22.90;99.90
37544;DHT22;23385;52.038;20.322;2022-07-29T07:30:58;23.00;99.90
37544;DHT22;23385;52.038;20.322;2022-07-29T07:33:26;23.20;99.90
37544;DHT22;23385;52.038;20.322;2022-07-29T07:35:52;23.30;99.90
37544;DHT22;23385;52.038;20.322;2022-07-29T07:38:17;23.30;99.90
37544;DHT22;23385;52.038;20.322;2022-07-29T07:40:43;23.30;99.90
37544;DHT22;23385;52.038;20.322;2022-07-29T07:43:11;23.50;99.90
37544;DHT22;23385;52.038;20.322;2022-07-29T07:45:37;23.60;99.90
37544;DHT22;23385;52.038;20.322;2022-07-29T07:48:05;23.70;99.90
37544;DHT22;23385;52.038;20.322;2022-07-29T07:50:31;23.90;99.90
37544;DHT22;23385;52.038;20.322;2022-07-29T07:52:57;24.00;99.90
37544;DHT22;23385;52.038;20.322;2022-07-29T07:55:23;24.10;99.90
37544;DHT22;23385;52.038;20.322;2022-07-29T07:57:49;24.10;99.90
37544;DHT22;23385;52.038;20.322;2022-07-29T08:00:15;24.30;99.90
37544;DHT22;23385;52.038;20.322;2022-07-29T08:02:41;24.30;99.90
37544;DHT22;23385;52.038;20.322;2022-07-29T08:05:09;24.50;99.90
37544;DHT22;23385;52.038;20.322;2022-07-29T08:07:34;24.60;99.90
37544;DHT22;23385;52.038;20.322;2022-07-29T08:10:02;24.60;99.90
37544;DHT22;23385;52.038;20.322;2022-07-29T08:12:28;24.70;99.90
37544;DHT22;23385;52.038;20.322;2022-07-29T08:14:55;24.90;99.90
37544;DHT22;23385;52.038;20.322;2022-07-29T08:17:21;25.20;99.90
37544;DHT22;23385;52.038;20.322;2022-07-29T08:19:46;25.20;99.90
37544;DHT22;23385;52.038;20.322;2022-07-29T08:22:15;25.00;99.90
37544;DHT22;23385;52.038;20.322;2022-07-29T08:24:48;25.20;99.90
37544;DHT22;23385;52.038;20.322;2022-07-29T08:27:21;25.40;99.90
37544;DHT22;23385;52.038;20.322;2022-07-29T08:29:47;25.30;99.90
37544;DHT22;23385;52.038;20.322;2022-07-29T08:32:13;25.40;99.90
37544;DHT22;23385;52.038;20.322;2022-07-29T08:34:40;25.40;99.90
37544;DHT22;23385;52.038;20.322;2022-07-29T08:37:05;25.40;99.90
37544;DHT22;23385;52.038;20.322;2022-07-29T08:39:31;25.50;99.90
37544;DHT22;23385;52.038;20.322;2022-07-29T08:41:57;25.60;99.90
37544;DHT22;23385;52.038;20.322;2022-07-29T08:44:23;25.70;99.90
37544;DHT22;23385;52.038;20.322;2022-07-29T08:46:50;25.90;99.90
37544;DHT22;23385;52.038;20.322;2022-07-29T08:49:17;26.00;99.90
37544;DHT22;23385;52.038;20.322;2022-07-29T08:51:43;25.80;99.90
37544;DHT22;23385;52.038;20.322;2022-07-29T08:54:09;25.70;99.90
37544;DHT22;23385;52.038;20.322;2022-07-29T08:56:39;25.80;99.90
37544;DHT22;23385;52.038;20.322;2022-07-29T08:59:05;25.80;99.90
37544;DHT22;23385;52.038;20.322;2022-07-29T09:01:33;25.90;99.90
37544;DHT22;23385;52.038;20.322;2022-07-29T09:04:04;26.20;99.90
37544;DHT22;23385;52.038;20.322;2022-07-29T09:06:34;26.30;99.90
37544;DHT22;23385;52.038;20.322;2022-07-29T09:09:01;26.30;99.90
37544;DHT22;23385;52.038;20.322;2022-07-29T09:11:27;26.20;99.90
37544;DHT22;23385;52.038;20.322;2022-07-29T09:13:53;26.30;99.90
37544;DHT22;23385;52.038;20.322;2022-07-29T09:16:19;26.10;99.90
37544;DHT22;23385;52.038;20.322;2022-07-29T09:18:46;25.90;99.90
37544;DHT22;23385;52.038;20.322;2022-07-29T09:21:17;25.90;99.90
37544;DHT22;23385;52.038;20.322;2022-07-29T09:24:20;25.80;99.90
37544;DHT22;23385;52.038;20.322;2022-07-29T09:27:08;25.80;99.90
37544;DHT22;23385;52.038;20.322;2022-07-29T09:29:47;25.40;99.90
37544;DHT22;23385;52.038;20.322;2022-07-29T09:32:14;25.10;99.90
37544;DHT22;23385;52.038;20.322;2022-07-29T09:34:41;25.00;99.90
37544;DHT22;23385;52.038;20.322;2022-07-29T09:37:07;25.10;99.90
37544;DHT22;23385;52.038;20.322;2022-07-29T09:39:38;25.10;99.90
37544;DHT22;23385;52.038;20.322;2022-07-29T09:42:13;25.20;99.90
37544;DHT22;23385;52.038;20.322;2022-07-29T09:44:53;25.40;99.90
37544;DHT22;23385;52.038;20.322;2022-07-29T09:47:19;25.50;99.90
37544;DHT22;23385;52.038;20.322;2022-07-29T09:49:55;25.60;99.90
37544;DHT22;23385;52.038;20.322;2022-07-29T09:52:24;25.70;99.90
37544;DHT22;23385;52.038;20.322;2022-07-29T09:54:50;26.00;99.90
37544;DHT22;23385;52.038;20.322;2022-07-29T09:57:28;26.10;99.90
37544;DHT22;23385;52.038;20.322;2022-07-29T10:02:28;26.40;99.90
37544;DHT22;23385;52.038;20.322;2022-07-29T10:04:53;26.40;99.90
37544;DHT22;23385;52.038;20.322;2022-07-29T10:07:19;26.40;99.90
37544;DHT22;23385;52.038;20.322;2022-07-29T10:09:56;26.50;99.90
37544;DHT22;23385;52.038;20.322;2022-07-29T10:12:23;26.70;99.90
37544;DHT22;23385;52.038;20.322;2022-07-29T10:14:50;26.50;99.90
37544;DHT22;23385;52.038;20.322;2022-07-29T10:17:17;26.60;99.90
37544;DHT22;23385;52.038;20.322;2022-07-29T10:19:44;26.80;99.90
37544;DHT22;23385;52.038;20.322;2022-07-29T10:22:10;26.80;99.90
37544;DHT22;23385;52.038;20.322;2022-07-29T10:24:38;27.10;99.90
37544;DHT22;23385;52.038;20.322;2022-07-29T10:27:07;26.90;99.90
37544;DHT22;23385;52.038;20.322;2022-07-29T10:29:33;27.10;99.90
37544;DHT22;23385;52.038;20.322;2022-07-29T10:32:31;27.20;99.90
37544;DHT22;23385;52.038;20.322;2022-07-29T10:35:34;26.90;99.90
37544;DHT22;23385;52.038;20.322;2022-07-29T10:43:53;26.80;99.90
37544;DHT22;23385;52.038;20.322;2022-07-29T10:46:20;26.80;99.90
37544;DHT22;23385;52.038;20.322;2022-07-29T10:49:05;26.70;99.90
37544;DHT22;23385;52.038;20.322;2022-07-29T10:52:06;26.80;99.90
37544;DHT22;23385;52.038;20.322;2022-07-29T10:57:38;26.80;99.90
37544;DHT22;23385;52.038;20.322;2022-07-29T11:05:03;26.70;99.90
37544;DHT22;23385;52.038;20.322;2022-07-29T11:07:32;26.90;99.90
37544;DHT22;23385;52.038;20.322;2022-07-29T11:15:21;27.20;99.90
37544;DHT22;23385;52.038;20.322;2022-07-29T11:20:39;27.20;99.90
37544;DHT22;23385;52.038;20.322;2022-07-29T11:23:32;27.30;99.90
37544;DHT22;23385;52.038;20.322;2022-07-29T11:26:20;27.40;99.90
37544;DHT22;23385;52.038;20.322;2022-07-29T11:31:37;27.10;99.90
37544;DHT22;23385;52.038;20.322;2022-07-29T11:34:19;26.90;99.90
37544;DHT22;23385;52.038;20.322;2022-07-29T11:40:08;27.00;99.90
37544;DHT22;23385;52.038;20.322;2022-07-29T11:42:40;27.20;99.90
37544;DHT22;23385;52.038;20.322;2022-07-29T11:45:18;27.50;99.90
37544;DHT22;23385;52.038;20.322;2022-07-29T11:47:51;27.60;99.90
37544;DHT22;23385;52.038;20.322;2022-07-29T11:50:31;27.80;99.90
37544;DHT22;23385;52.038;20.322;2022-07-29T11:52:57;28.10;99.90
37544;DHT22;23385;52.038;20.322;2022-07-29T11:55:24;28.10;99.90
37544;DHT22;23385;52.038;20.322;2022-07-29T11:57:57;28.00;99.90
37544;DHT22;23385;52.038;20.322;2022-07-29T12:00:29;27.80;99.90
37544;DHT22;23385;52.038;20.322;2022-07-29T12:03:06;27.90;99.90
37544;DHT22;23385;52.038;20.322;2022-07-29T12:05:50;27.80;99.90
37544;DHT22;23385;52.038;20.322;2022-07-29T12:08:23;27.60;99.90
37544;DHT22;23385;52.038;20.322;2022-07-29T12:10:52;27.60;99.90
37544;DHT22;23385;52.038;20.322;2022-07-29T12:13:19;27.50;99.90
37544;DHT22;23385;52.038;20.322;2022-07-29T12:15:56;27.60;99.90
37544;DHT22;23385;52.038;20.322;2022-07-29T12:18:25;27.80;99.90
37544;DHT22;23385;52.038;20.322;2022-07-29T12:21:00;27.80;99.90
37544;DHT22;23385;52.038;20.322;2022-07-29T12:23:41;27.70;99.90
37544;DHT22;23385;52.038;20.322;2022-07-29T12:26:24;27.60;99.90
37544;DHT22;23385;52.038;20.322;2022-07-29T12:28:49;27.70;99.90
37544;DHT22;23385;52.038;20.322;2022-07-29T12:31:16;27.70;99.90
37544;DHT22;23385;52.038;20.322;2022-07-29T12:33:42;27.80;99.90
37544;DHT22;23385;52.038;20.322;2022-07-29T12:36:08;27.70;99.90
37544;DHT22;23385;52.038;20.322;2022-07-29T12:38:37;27.60;99.90
37544;DHT22;23385;52.038;20.322;2022-07-29T12:41:05;27.40;99.90
37544;DHT22;23385;52.038;20.322;2022-07-29T12:43:35;27.50;99.90
37544;DHT22;23385;52.038;20.322;2022-07-29T12:46:21;27.50;99.90
37544;DHT22;23385;52.038;20.322;2022-07-29T12:48:57;27.50;99.90
37544;DHT22;23385;52.038;20.322;2022-07-29T12:51:41;27.30;99.90
37544;DHT22;23385;52.038;20.322;2022-07-29T12:54:15;27.50;99.90
37544;DHT22;23385;52.038;20.322;2022-07-29T12:56:44;27.60;99.90
37544;DHT22;23385;52.038;20.322;2022-07-29T12:59:21;27.80;99.90
37544;DHT22;23385;52.038;20.322;2022-07-29T13:01:49;27.70;99.60
37544;DHT22;23385;52.038;20.322;2022-07-29T13:04:32;27.70;99.90
37544;DHT22;23385;52.038;20.322;2022-07-29T13:07:05;27.80;99.70
37544;DHT22;23385;52.038;20.322;2022-07-29T13:09:44;28.00;99.90
37544;DHT22;23385;52.038;20.322;2022-07-29T13:12:14;27.90;99.90
37544;DHT22;23385;52.038;20.322;2022-07-29T13:14:47;27.80;99.70
37544;DHT22;23385;52.038;20.322;2022-07-29T13:17:22;27.90;99.90
37544;DHT22;23385;52.038;20.322;2022-07-29T13:20:05;27.80;99.90
37544;DHT22;23385;52.038;20.322;2022-07-29T13:22:34;27.80;99.90
37544;DHT22;23385;52.038;20.322;2022-07-29T13:25:02;27.90;98.80
37544;DHT22;23385;52.038;20.322;2022-07-29T13:27:29;28.00;98.50
37544;DHT22;23385;52.038;20.322;2022-07-29T13:29:57;27.90;99.00
37544;DHT22;23385;52.038;20.322;2022-07-29T13:32:31;27.70;97.90
37544;DHT22;23385;52.038;20.322;2022-07-29T13:35:10;27.70;98.00
37544;DHT22;23385;52.038;20.322;2022-07-29T13:37:51;27.70;98.50
37544;DHT22;23385;52.038;20.322;2022-07-29T13:40:27;27.80;97.20
37544;DHT22;23385;52.038;20.322;2022-07-29T13:42:54;27.80;96.40
37544;DHT22;23385;52.038;20.322;2022-07-29T13:45:20;27.70;98.10
37544;DHT22;23385;52.038;20.322;2022-07-29T13:47:45;27.80;99.40
37544;DHT22;23385;52.038;20.322;2022-07-29T13:50:11;27.70;98.10
37544;DHT22;23385;52.038;20.322;2022-07-29T13:52:37;27.70;98.80
37544;DHT22;23385;52.038;20.322;2022-07-29T13:55:04;27.60;98.90
37544;DHT22;23385;52.038;20.322;2022-07-29T13:57:30;27.60;99.20
37544;DHT22;23385;52.038;20.322;2022-07-29T14:00:09;27.70;99.30
37544;DHT22;23385;52.038;20.322;2022-07-29T14:02:38;27.80;99.00
37544;DHT22;23385;52.038;20.322;2022-07-29T14:05:05;27.90;98.90
37544;DHT22;23385;52.038;20.322;2022-07-29T14:07:31;28.00;97.10
37544;DHT22;23385;52.038;20.322;2022-07-29T14:09:56;28.20;96.80
37544;DHT22;23385;52.038;20.322;2022-07-29T14:12:22;28.20;96.80
37544;DHT22;23385;52.038;20.322;2022-07-29T14:14:48;28.30;98.00
37544;DHT22;23385;52.038;20.322;2022-07-29T14:17:27;28.30;97.00
37544;DHT22;23385;52.038;20.322;2022-07-29T14:20:00;28.40;96.70
37544;DHT22;23385;52.038;20.322;2022-07-29T14:22:26;28.20;95.60
37544;DHT22;23385;52.038;20.322;2022-07-29T14:24:52;28.10;97.80
37544;DHT22;23385;52.038;20.322;2022-07-29T14:27:20;28.30;97.40
37544;DHT22;23385;52.038;20.322;2022-07-29T14:29:50;28.40;96.60
37544;DHT22;23385;52.038;20.322;2022-07-29T14:32:17;28.40;97.50
37544;DHT22;23385;52.038;20.322;2022-07-29T14:34:46;28.20;95.70
37544;DHT22;23385;52.038;20.322;2022-07-29T14:37:22;28.00;96.00
37544;DHT22;23385;52.038;20.322;2022-07-29T14:40:04;27.70;95.10
37544;DHT22;23385;52.038;20.322;2022-07-29T14:42:45;27.50;96.30
37544;DHT22;23385;52.038;20.322;2022-07-29T14:45:23;27.50;96.80
37544;DHT22;23385;52.038;20.322;2022-07-29T14:47:53;27.50;96.00
37544;DHT22;23385;52.038;20.322;2022-07-29T14:50:19;27.50;96.50
37544;DHT22;23385;52.038;20.322;2022-07-29T14:52:44;27.50;97.30
37544;DHT22;23385;52.038;20.322;2022-07-29T14:55:12;27.20;96.00
37544;DHT22;23385;52.038;20.322;2022-07-29T14:57:37;27.10;96.20
37544;DHT22;23385;52.038;20.322;2022-07-29T15:00:04;27.20;95.80
37544;DHT22;23385;52.038;20.322;2022-07-29T15:02:32;27.20;95.80
37544;DHT22;23385;52.038;20.322;2022-07-29T15:04:58;27.30;96.00
37544;DHT22;23385;52.038;20.322;2022-07-29T15:07:24;27.30;96.10
37544;DHT22;23385;52.038;20.322;2022-07-29T15:09:49;27.50;96.50
37544;DHT22;23385;52.038;20.322;2022-07-29T15:12:15;27.50;96.70
37544;DHT22;23385;52.038;20.322;2022-07-29T15:14:41;27.50;97.50
37544;DHT22;23385;52.038;20.322;2022-07-29T15:17:07;27.40;97.30
37544;DHT22;23385;52.038;20.322;2022-07-29T15:19:33;27.30;97.50
37544;DHT22;23385;52.038;20.322;2022-07-29T15:21:59;27.20;99.40
37544;DHT22;23385;52.038;20.322;2022-07-29T15:24:24;27.10;98.10
37544;DHT22;23385;52.038;20.322;2022-07-29T15:26:51;27.00;98.60
37544;DHT22;23385;52.038;20.322;2022-07-29T15:29:18;27.00;98.30
37544;DHT22;23385;52.038;20.322;2022-07-29T15:31:44;27.00;99.10
37544;DHT22;23385;52.038;20.322;2022-07-29T15:34:11;26.80;99.30
37544;DHT22;23385;52.038;20.322;2022-07-29T15:36:37;26.60;99.90
37544;DHT22;23385;52.038;20.322;2022-07-29T15:39:02;26.40;99.10
37544;DHT22;23385;52.038;20.322;2022-07-29T15:41:28;26.40;99.50
37544;DHT22;23385;52.038;20.322;2022-07-29T15:44:03;26.30;99.90
37544;DHT22;23385;52.038;20.322;2022-07-29T15:46:31;26.30;99.90
37544;DHT22;23385;52.038;20.322;2022-07-29T15:49:16;26.20;99.90
37544;DHT22;23385;52.038;20.322;2022-07-29T15:51:41;26.10;99.90
37544;DHT22;23385;52.038;20.322;2022-07-29T15:54:07;25.90;99.90
37544;DHT22;23385;52.038;20.322;2022-07-29T15:56:33;25.90;99.90
37544;DHT22;23385;52.038;20.322;2022-07-29T15:58:59;25.90;99.90
37544;DHT22;23385;52.038;20.322;2022-07-29T16:01:37;25.90;99.90
37544;DHT22;23385;52.038;20.322;2022-07-29T16:04:06;25.90;99.90
37544;DHT22;23385;52.038;20.322;2022-07-29T16:06:32;25.90;99.90
37544;DHT22;23385;52.038;20.322;2022-07-29T16:08:58;25.80;99.90
37544;DHT22;23385;52.038;20.322;2022-07-29T16:11:25;25.70;99.90
37544;DHT22;23385;52.038;20.322;2022-07-29T16:13:50;25.80;99.90
37544;DHT22;23385;52.038;20.322;2022-07-29T16:16:16;25.70;99.90
37544;DHT22;23385;52.038;20.322;2022-07-29T16:18:43;25.70;99.90
37544;DHT22;23385;52.038;20.322;2022-07-29T16:21:10;25.70;99.90
37544;DHT22;23385;52.038;20.322;2022-07-29T16:23:36;25.60;99.90
37544;DHT22;23385;52.038;20.322;2022-07-29T16:26:02;25.60;99.90
37544;DHT22;23385;52.038;20.322;2022-07-29T16:28:28;25.60;99.90
37544;DHT22;23385;52.038;20.322;2022-07-29T16:30:55;25.70;99.90
37544;DHT22;23385;52.038;20.322;2022-07-29T16:33:22;25.80;99.90
37544;DHT22;23385;52.038;20.322;2022-07-29T16:35:49;25.90;99.90
37544;DHT22;23385;52.038;20.322;2022-07-29T16:38:15;26.00;99.90
37544;DHT22;23385;52.038;20.322;2022-07-29T16:40:42;26.10;99.90
37544;DHT22;23385;52.038;20.322;2022-07-29T16:43:08;26.10;99.90
37544;DHT22;23385;52.038;20.322;2022-07-29T16:45:35;25.90;99.90
37544;DHT22;23385;52.038;20.322;2022-07-29T16:48:01;25.70;99.90
37544;DHT22;23385;52.038;20.322;2022-07-29T16:50:28;25.60;99.90
37544;DHT22;23385;52.038;20.322;2022-07-29T16:52:55;25.40;99.90
37544;DHT22;23385;52.038;20.322;2022-07-29T16:55:21;25.40;99.90